»·PEaware :: DIHNF KONT-KAVX

DIHNF :: KONT-KAVX

FLIGHT INFORMATION

Flight Status: Arrived
Operator: Unknown
More flights by this operator :: More flights under this callsign
Pilot: Klaus A. (15485)
Aircraft: BEECH AIRCRAFT BARON
(BE58)
More flights by this aircraft type
Origin: KONT Ontario Intl
United States
Destination: KAVX Catalina
United States
More flights between these airports :: More routes between these airports
Route: +PDZ V16 PRADO V363 DANAH SXC065R SXC
File this flight plan on PilotEdge
Remarks: / G Newbie Custom Weather TEC ONTN8
Altitude:
(Current/Filed)
7,000ft
Speed:
(Current/Filed)
170kts
Departed: 08-Jan-18 09:30 AM
Arrived: 08-Jan-18 10:17 AM
Distance/Time
Traveled:
4902nm/0:46
Distance/Time
To Go:
Arrived

Flight Plot

Page will automatically refresh every two minutes.


Map Options




Map Legend


Flown Route
Filed Route
Departure Airport
Arrival Airport
Navaid (VOR, NDB)
Fix

Horizontal Profiles

Position Reports

Time Latitude Longitude Heading Altitude Ground
Speed
08-Jan-18 09:11 34.051348 -117.603087 269 943ft 0kts
08-Jan-18 09:12 34.051348 -117.603087 269 943ft 0kts
08-Jan-18 09:13 34.051348 -117.603087 269 943ft 0kts
08-Jan-18 09:14 34.051348 -117.603087 270 943ft 0kts
08-Jan-18 09:15 34.051348 -117.603087 269 943ft 0kts
08-Jan-18 09:16 34.051348 -117.603087 269 943ft 0kts
08-Jan-18 09:17 34.051348 -117.603087 270 943ft 0kts
08-Jan-18 09:18 34.051348 -117.603087 269 943ft 0kts
08-Jan-18 09:19 34.051348 -117.603087 269 943ft 0kts
08-Jan-18 09:20 34.051348 -117.603087 269 943ft 0kts
08-Jan-18 09:21 34.051348 -117.603087 269 943ft 0kts
08-Jan-18 09:22 34.051348 -117.603087 269 943ft 0kts
08-Jan-18 09:23 34.051348 -117.603087 270 943ft 0kts
08-Jan-18 09:24 34.051348 -117.603087 270 943ft 0kts
08-Jan-18 09:25 34.051348 -117.603087 269 943ft 0kts
08-Jan-18 09:26 34.051348 -117.603087 269 943ft 0kts
08-Jan-18 09:27 34.051348 -117.603090 270 943ft 0kts
08-Jan-18 09:28 34.051493 -117.603362 325 943ft 8kts
08-Jan-18 09:29 34.053114 -117.603543 2 943ft 6kts
08-Jan-18 09:30 34.053827 -117.600608 90 943ft 14kts
08-Jan-18 09:31 34.053863 -117.595517 90 943ft 15kts
08-Jan-18 09:32 34.053866 -117.590038 89 943ft 16kts
08-Jan-18 09:33 34.053866 -117.584449 88 943ft 16kts
08-Jan-18 09:34 34.054123 -117.582568 1 943ft 0kts
08-Jan-18 09:35 34.054123 -117.582568 1 943ft 0kts
08-Jan-18 09:36 34.054971 -117.588927 269 943ft 100kts
08-Jan-18 09:37 34.053347 -117.628388 268 2507ft 120kts
08-Jan-18 09:38 34.049723 -117.665997 251 3982ft 115kts
08-Jan-18 09:39 34.022498 -117.664757 132 5317ft 133kts
08-Jan-18 09:40 34.000660 -117.625452 130 5983ft 163kts
08-Jan-18 09:41 33.967784 -117.590905 196 6063ft 158kts
08-Jan-18 09:42 33.945821 -117.629946 265 6636ft 146kts
08-Jan-18 09:43 33.939704 -117.678428 252 7016ft 149kts
08-Jan-18 09:44 33.931040 -117.731530 254 7001ft 169kts
08-Jan-18 09:45 33.913760 -117.778898 194 6963ft 166kts
08-Jan-18 09:46 33.869515 -117.781969 180 6986ft 158kts
08-Jan-18 09:47 33.825630 -117.781591 180 6992ft 159kts
08-Jan-18 09:48 33.781579 -117.780190 171 6981ft 166kts
08-Jan-18 09:49 33.737417 -117.759989 164 6992ft 171kts
08-Jan-18 09:50 33.707893 -117.746117 164 6992ft 171kts
08-Jan-18 09:51 33.676329 -117.731697 165 6951ft 181kts
08-Jan-18 09:52 33.626369 -117.722754 171 6988ft 182kts
08-Jan-18 09:53 33.576091 -117.714314 171 6990ft 183kts
08-Jan-18 09:54 33.535600 -117.707526 171 6990ft 183kts
08-Jan-18 09:55 33.494826 -117.701311 186 6979ft 183kts
08-Jan-18 09:56 33.473838 -117.752408 258 6990ft 183kts
08-Jan-18 09:57 33.464789 -117.812458 260 6990ft 183kts
08-Jan-18 09:58 33.456042 -117.872513 260 6990ft 183kts
08-Jan-18 09:59 33.447150 -117.933550 260 6369ft 185kts
08-Jan-18 10:00 33.438493 -117.992543 260 6012ft 170kts
08-Jan-18 10:01 33.430405 -118.047665 260 6015ft 166kts
08-Jan-18 10:02 33.422380 -118.102150 260 6015ft 166kts
08-Jan-18 10:03 33.414226 -118.157477 260 5724ft 171kts
08-Jan-18 10:04 33.406135 -118.211921 260 5004ft 160kts
08-Jan-18 10:05 33.398523 -118.263093 260 4220ft 154kts
08-Jan-18 10:06 33.391130 -118.312531 259 3741ft 142kts
08-Jan-18 10:07 33.383882 -118.361108 260 3990ft 149kts
08-Jan-18 10:08 33.377586 -118.407630 280 3980ft 139kts
08-Jan-18 10:09 33.410005 -118.415431 9 3988ft 136kts
08-Jan-18 10:10 33.447664 -118.409255 5 3996ft 137kts
08-Jan-18 10:11 33.485705 -118.405769 3 4022ft 137kts
08-Jan-18 10:12 33.523577 -118.403031 350 3697ft 136kts
08-Jan-18 10:13 33.555067 -118.425846 318 3397ft 131kts
08-Jan-18 10:14 33.580756 -118.452469 316 3374ft 121kts
08-Jan-18 10:15 33.609460 -118.468569 40 3413ft 130kts
08-Jan-18 10:16 33.594764 -118.437987 132 3502ft 127kts
08-Jan-18 10:17 33.566352 -118.409022 145 3304ft 143kts
08-Jan-18 10:18 33.527927 -118.404596 187 2716ft 146kts
08-Jan-18 10:19 33.490603 -118.402891 180 2557ft 126kts
08-Jan-18 10:20 33.455473 -118.405683 179 2430ft 108kts
08-Jan-18 10:21 33.430117 -118.401940 163 2504ft 98kts
08-Jan-18 10:22 33.408351 -118.410119 234 1669ft 96kts
08-Jan-18 10:23 33.402543 -118.419196 53 1603ft 11kts
08-Jan-18 10:24 33.403351 -118.415665 90 1603ft 10kts
08-Jan-18 10:25 33.403504 -118.414960 55 1603ft 0kts
08-Jan-18 10:26 33.403504 -118.414960 55 1603ft 0kts
08-Jan-18 10:27 33.403504 -118.414960 55 1603ft 0kts
08-Jan-18 10:28 33.403504 -118.414960 55 1603ft 0kts
08-Jan-18 10:29 33.403504 -118.414960 55 1603ft 0kts
08-Jan-18 10:30 51.275019 6.753238 243 151ft 0kts
08-Jan-18 10:31 51.275019 6.753238 243 151ft 0kts
08-Jan-18 10:32 51.275019 6.753238 243 151ft 0kts
08-Jan-18 10:33 51.275019 6.753238 243 151ft 0kts
08-Jan-18 10:34 51.275019 6.753238 243 151ft 0kts
08-Jan-18 10:35 51.275019 6.753238 243 151ft 0kts
08-Jan-18 10:36 51.275019 6.753238 243 151ft 0kts
08-Jan-18 10:37 51.275019 6.753238 243 151ft 0kts

Navigation Log

Ident Type
1. KONT Airport
2. PDZ Navaid
3. WISUP Fix
4. PRADO Fix
5. POXKU Fix
6. JOGIT Fix
7. ELB Navaid
8. DANAH Fix
9. SXC Navaid
10. KAVX Airport